Time;durP1;ratioP1;P1;durP2;ratioP2;P2;SDS_P1;SDS_P2;PMS_P1;PMS_P2;Temp;Humidity;BMP_temperature;BMP_pressure;BME280_temperature;BME280_humidity;BME280_pressure;Samples;Min_cycle;Max_cycle;Signal;HPM_P1;HPM_P2
2023/01/01 00:01:09;;;;;;;23.08;14.18;;;13.10;99.90;;;;;;5027280;28;19925;-82
2023/01/01 00:03:34;;;;;;;19.75;14.75;;;13.10;99.90;;;;;;5029587;28;20179;-82
2023/01/01 00:06:26;;;;;;;24.48;16.45;;;13.40;99.90;;;;;;5027715;28;20128;-82
2023/01/01 00:10:26;;;;;;;29.75;19.38;;;12.90;99.90;;;;;;5029760;28;20499;-82
2023/01/01 00:11:38;;;;;;;28.95;19.33;;;12.90;99.90;;;;;;5028906;28;20097;-81
2023/01/01 00:14:04;;;;;;;26.92;20.08;;;12.90;99.90;;;;;;5030252;28;20104;-82
2023/01/01 00:16:30;;;;;;;29.38;21.60;;;13.00;99.90;;;;;;5018101;28;20042;-82
2023/01/01 00:18:55;;;;;;;27.00;22.52;;;12.90;99.90;;;;;;5009536;28;20034;-82
2023/01/01 00:21:21;;;;;;;33.17;22.48;;;12.90;99.90;;;;;;5009299;28;20112;-82
2023/01/01 00:23:47;;;;;;;29.73;21.00;;;12.90;99.90;;;;;;5008618;28;20367;-83
2023/01/01 00:26:15;;;;;;;28.02;21.25;;;12.90;99.90;;;;;;5007125;28;20050;-83
2023/01/01 00:28:41;;;;;;;27.33;18.20;;;12.80;99.90;;;;;;5024167;28;20441;-82
2023/01/01 00:31:08;;;;;;;28.90;19.70;;;12.80;99.90;;;;;;5027995;28;20055;-82
2023/01/01 00:33:34;;;;;;;28.95;18.83;;;12.70;99.90;;;;;;5027066;28;20050;-81
2023/01/01 00:36:10;;;;;;;25.17;17.95;;;12.70;99.90;;;;;;5021773;28;20052;-82
2023/01/01 00:38:36;;;;;;;25.70;16.65;;;12.70;99.90;;;;;;5010398;28;20045;-81
2023/01/01 00:41:02;;;;;;;24.55;16.92;;;12.70;99.90;;;;;;5028575;28;20099;-83
2023/01/01 00:43:28;;;;;;;26.60;15.98;;;12.60;99.90;;;;;;5027951;28;20159;-82
2023/01/01 00:45:54;;;;;;;20.98;15.13;;;12.60;99.90;;;;;;5026121;28;20491;-81
2023/01/01 00:48:21;;;;;;;24.30;15.23;;;12.70;99.90;;;;;;5022892;28;20040;-83
2023/01/01 00:50:47;;;;;;;23.98;13.68;;;12.70;99.90;;;;;;5027129;28;20053;-81
2023/01/01 00:53:13;;;;;;;21.00;14.57;;;12.80;99.90;;;;;;5027711;28;20132;-82
2023/01/01 00:55:39;;;;;;;22.38;14.10;;;12.80;99.90;;;;;;5027168;28;20206;-81
2023/01/01 00:58:08;;;;;;;25.17;13.95;;;12.80;99.90;;;;;;5019958;28;20045;-81
2023/01/01 01:00:34;;;;;;;26.27;14.43;;;12.80;99.90;;;;;;5008666;28;20046;-81
2023/01/01 01:03:00;;;;;;;21.90;13.77;;;12.80;99.90;;;;;;5015759;28;20042;-81
2023/01/01 01:05:25;;;;;;;20.88;14.43;;;12.90;99.90;;;;;;5017694;28;20045;-82
2023/01/01 01:07:51;;;;;;;23.10;14.73;;;12.90;99.90;;;;;;5036936;28;20050;-82
2023/01/01 01:10:21;;;;;;;20.85;14.98;;;12.90;99.90;;;;;;5027743;28;20139;-81
2023/01/01 01:12:47;;;;;;;26.13;15.35;;;13.00;99.90;;;;;;5025615;28;20045;-81
2023/01/01 01:15:14;;;;;;;25.08;17.13;;;13.00;99.90;;;;;;5009118;28;20497;-82
2023/01/01 01:17:40;;;;;;;21.90;14.88;;;13.00;99.90;;;;;;5025099;28;20044;-81
2023/01/01 01:20:07;;;;;;;20.73;16.45;;;13.00;99.90;;;;;;5026620;28;20669;-82
2023/01/01 01:22:33;;;;;;;25.65;16.38;;;13.10;99.90;;;;;;5027149;28;20049;-81
2023/01/01 01:25:00;;;;;;;29.33;16.38;;;13.10;99.90;;;;;;5025832;28;20124;-82
2023/01/01 01:27:25;;;;;;;24.65;16.17;;;13.20;99.90;;;;;;5039379;28;20049;-82
2023/01/01 01:29:52;;;;;;;23.75;15.55;;;13.20;99.90;;;;;;5007809;28;20053;-82
2023/01/01 01:32:18;;;;;;;18.50;14.63;;;13.10;99.90;;;;;;5021536;28;20104;-82
2023/01/01 01:34:43;;;;;;;26.73;16.25;;;13.20;99.90;;;;;;5014482;28;21120;-83
2023/01/01 01:37:10;;;;;;;22.70;16.15;;;13.20;99.90;;;;;;5022707;28;20052;-81
2023/01/01 01:39:37;;;;;;;21.23;14.77;;;13.20;99.90;;;;;;5026341;28;20049;-81
2023/01/01 01:42:05;;;;;;;22.67;15.55;;;13.20;99.90;;;;;;5025386;28;20415;-81
2023/01/01 01:44:53;;;;;;;24.73;15.63;;;13.20;99.90;;;;;;5042477;28;20110;-82
2023/01/01 01:47:44;;;;;;;20.33;14.38;;;13.10;99.90;;;;;;5025494;28;20053;-81
2023/01/01 01:50:21;;;;;;;24.25;14.20;;;13.10;99.90;;;;;;5025853;28;20049;-80
2023/01/01 01:53:07;;;;;;;23.60;15.32;;;13.10;99.90;;;;;;5026677;28;20057;-81
2023/01/01 01:55:43;;;;;;;20.85;15.82;;;13.10;99.90;;;;;;5008237;28;20139;-82
2023/01/01 01:58:12;;;;;;;24.45;15.45;;;13.10;99.90;;;;;;5023391;28;20844;-80
2023/01/01 02:00:37;;;;;;;20.85;15.07;;;13.10;99.90;;;;;;5026671;28;20037;-80
2023/01/01 02:03:15;;;;;;;27.15;15.73;;;13.10;99.90;;;;;;5022047;28;20557;-82
2023/01/01 02:05:41;;;;;;;24.13;15.07;;;13.10;99.90;;;;;;5020655;28;20064;-82
2023/01/01 02:08:08;;;;;;;22.70;14.50;;;13.00;99.90;;;;;;5022009;28;20046;-81
2023/01/01 02:10:35;;;;;;;23.83;14.70;;;13.20;99.90;;;;;;5026051;28;20049;-81
2023/01/01 02:13:01;;;;;;;21.88;14.02;;;13.10;99.90;;;;;;5024739;28;20053;-82
2023/01/01 02:15:33;;;;;;;21.90;14.27;;;13.00;99.90;;;;;;5026323;28;20049;-81
2023/01/01 02:18:00;;;;;;;;;;;13.00;99.90;;;;;;5022547;28;20044;-81
2023/01/01 02:20:36;;;;;;;20.95;14.48;;;13.20;99.90;;;;;;5024464;28;19933;-82
2023/01/01 02:23:34;;;;;;;24.15;13.63;;;13.00;99.90;;;;;;5026222;28;20048;-81
2023/01/01 02:26:15;;;;;;;21.00;14.25;;;13.10;99.90;;;;;;5024291;28;20053;-81
2023/01/01 02:28:41;;;;;;;22.15;13.60;;;13.10;99.90;;;;;;5009013;28;20415;-82
2023/01/01 02:31:09;;;;;;;21.02;13.32;;;13.10;99.90;;;;;;5029071;28;20053;-81
2023/01/01 02:33:35;;;;;;;20.05;12.38;;;13.30;99.90;;;;;;5020345;28;20050;-80
2023/01/01 02:36:03;;;;;;;21.50;13.27;;;13.30;99.90;;;;;;5011844;28;20037;-81
2023/01/01 02:38:35;;;;;;;20.48;12.15;;;13.30;99.90;;;;;;5009571;28;20038;-81
2023/01/01 02:41:07;;;;;;;23.63;11.70;;;13.60;99.90;;;;;;5030425;28;20817;-81
2023/01/01 02:43:33;;;;;;;16.77;10.35;;;13.20;99.90;;;;;;5031143;28;20496;-81
2023/01/01 02:46:03;;;;;;;18.60;10.50;;;13.20;99.90;;;;;;5029951;28;20048;-81
2023/01/01 02:48:42;;;;;;;18.42;9.93;;;13.20;99.90;;;;;;5030012;28;20068;-81
2023/01/01 02:51:42;;;;;;;19.85;10.80;;;13.20;99.90;;;;;;5011411;28;20045;-81
2023/01/01 02:54:16;;;;;;;17.13;10.93;;;13.20;99.90;;;;;;5029594;28;20049;-82
2023/01/01 02:56:47;;;;;;;18.65;10.25;;;13.20;99.90;;;;;;5012962;28;20042;-81
2023/01/01 03:02:41;;;;;;;15.73;8.50;;;13.20;99.90;;;;;;5019098;28;20065;-81
2023/01/01 03:05:19;;;;;;;15.98;7.38;;;13.20;99.90;;;;;;5011641;28;20049;-82
2023/01/01 03:08:16;;;;;;;17.08;8.07;;;13.20;99.90;;;;;;5010346;28;20041;-81
2023/01/01 03:10:50;;;;;;;14.07;7.53;;;13.20;99.90;;;;;;4992977;28;20050;-81
2023/01/01 03:13:45;;;;;;;15.90;6.65;;;13.20;99.90;;;;;;5011554;28;20461;-82
2023/01/01 03:16:33;;;;;;;10.43;5.47;;;13.30;99.90;;;;;;5030051;28;20183;-81
2023/01/01 03:19:15;;;;;;;12.02;5.20;;;13.30;99.90;;;;;;5026053;28;20042;-81
2023/01/01 03:21:54;;;;;;;12.10;4.63;;;13.40;99.90;;;;;;5014331;28;20421;-81
2023/01/01 03:24:31;;;;;;;13.00;4.70;;;13.40;99.90;;;;;;5029075;28;20491;-81
2023/01/01 03:27:04;;;;;;;6.15;4.13;;;13.50;99.90;;;;;;5027603;28;20080;-81
2023/01/01 03:29:36;;;;;;;11.13;3.85;;;14.20;99.90;;;;;;5029678;28;20041;-81
2023/01/01 03:32:06;;;;;;;9.38;3.40;;;13.60;99.90;;;;;;5027642;28;20132;-81
2023/01/01 03:34:37;;;;;;;9.00;3.83;;;13.70;99.90;;;;;;5028533;28;20068;-80
2023/01/01 03:37:07;;;;;;;9.57;4.00;;;13.90;99.90;;;;;;5014535;28;20050;-81
2023/01/01 03:39:39;;;;;;;5.78;3.70;;;13.70;99.90;;;;;;5023114;28;20046;-81
2023/01/01 03:42:30;;;;;;;9.43;3.90;;;13.70;99.90;;;;;;5008522;28;20500;-81
2023/01/01 03:45:20;;;;;;;10.90;3.72;;;13.70;99.90;;;;;;5010241;28;20595;-83
2023/01/01 03:47:53;;;;;;;9.50;3.30;;;13.80;99.90;;;;;;5009584;28;20054;-81
2023/01/01 03:50:24;;;;;;;9.82;3.35;;;13.80;99.90;;;;;;4992377;28;20038;-82
2023/01/01 03:53:10;;;;;;;9.02;3.47;;;13.90;99.90;;;;;;5022204;28;20057;-82
2023/01/01 03:55:49;;;;;;;7.65;3.40;;;13.90;99.90;;;;;;5028366;28;20183;-82
2023/01/01 03:58:25;;;;;;;8.95;3.22;;;14.00;99.90;;;;;;5027704;28;20517;-82
2023/01/01 04:01:21;;;;;;;8.80;3.05;;;14.00;99.90;;;;;;5027013;28;20041;-82
2023/01/01 04:03:47;;;;;;;6.47;3.03;;;14.10;99.90;;;;;;5028951;28;20160;-81
2023/01/01 04:06:13;;;;;;;7.55;3.05;;;14.10;99.90;;;;;;5028364;28;20388;-82
2023/01/01 04:08:39;;;;;;;11.63;3.10;;;14.00;99.90;;;;;;5028913;28;20056;-82
2023/01/01 04:14:00;;;;;;;7.05;2.88;;;13.90;99.90;;;;;;5011785;28;20132;-81
2023/01/01 04:16:26;;;;;;;11.13;3.53;;;14.00;99.90;;;;;;5009530;28;20168;-80
2023/01/01 04:18:52;;;;;;;9.77;2.90;;;13.90;99.90;;;;;;5009476;28;20041;-81
2023/01/01 04:21:17;;;;;;;10.13;2.50;;;13.90;99.90;;;;;;5009218;28;20444;-81
2023/01/01 04:23:43;;;;;;;8.02;3.00;;;13.90;99.90;;;;;;5009342;28;20057;-79
2023/01/01 04:26:13;;;;;;;8.32;2.85;;;13.90;99.90;;;;;;5009706;28;20205;-80
2023/01/01 04:28:40;;;;;;;7.40;3.00;;;13.90;99.90;;;;;;5017915;28;20466;-80
2023/01/01 04:31:10;;;;;;;7.18;2.90;;;13.90;99.90;;;;;;5011124;28;20449;-80
2023/01/01 04:33:36;;;;;;;6.82;2.50;;;13.90;99.90;;;;;;5028115;28;20049;-80
2023/01/01 04:36:15;;;;;;;7.68;2.85;;;13.90;99.90;;;;;;5022912;28;20514;-81
2023/01/01 04:38:50;;;;;;;6.65;2.53;;;13.90;99.90;;;;;;5024588;28;20136;-80
2023/01/01 04:41:15;;;;;;;6.50;2.25;;;13.90;99.90;;;;;;5009859;28;20053;-79
2023/01/01 04:43:43;;;;;;;11.18;3.28;;;13.90;99.90;;;;;;5023840;28;20046;-80
2023/01/01 04:46:08;;;;;;;5.78;2.72;;;13.80;99.90;;;;;;5026572;28;20057;-82
2023/01/01 04:48:34;;;;;;;7.63;2.58;;;14.30;99.90;;;;;;5026327;28;20744;-80
2023/01/01 04:51:03;;;;;;;8.95;2.47;;;13.50;99.90;;;;;;5024679;28;20111;-81
2023/01/01 04:53:31;;;;;;;7.32;2.42;;;13.50;99.90;;;;;;5008648;28;20121;-80
2023/01/01 04:56:12;;;;;;;9.48;2.45;;;13.60;99.90;;;;;;5020949;28;20067;-80
2023/01/01 04:58:39;;;;;;;6.50;2.70;;;13.60;99.90;;;;;;5027628;28;20069;-79
2023/01/01 05:01:05;;;;;;;10.18;2.53;;;13.60;99.90;;;;;;5026651;28;20151;-81
2023/01/01 05:03:31;;;;;;;6.57;2.20;;;13.70;99.90;;;;;;5027979;28;20049;-80
2023/01/01 05:06:01;;;;;;;8.13;2.40;;;13.70;99.90;;;;;;5028557;28;20523;-80
2023/01/01 05:08:31;;;;;;;7.55;2.30;;;13.70;99.90;;;;;;5011490;28;20046;-80
2023/01/01 05:11:02;;;;;;;8.48;2.45;;;13.70;99.90;;;;;;5007895;28;20064;-80
2023/01/01 05:13:27;;;;;;;6.93;2.15;;;13.70;99.90;;;;;;5007672;28;20100;-82
2023/01/01 05:15:53;;;;;;;7.15;1.80;;;13.70;99.90;;;;;;5009171;28;20073;-80
2023/01/01 05:18:19;;;;;;;5.47;2.15;;;13.60;99.90;;;;;;5008919;28;20127;-82
2023/01/01 05:20:44;;;;;;;6.90;1.83;;;13.50;99.90;;;;;;5007405;28;20046;-80
2023/01/01 05:23:10;;;;;;;4.10;1.77;;;13.60;99.90;;;;;;5007511;28;20042;-81
2023/01/01 05:25:35;;;;;;;6.97;2.13;;;13.50;99.90;;;;;;5008535;28;20520;-81
2023/01/01 05:28:01;;;;;;;7.68;2.10;;;13.50;99.90;;;;;;5006996;28;20451;-80
2023/01/01 05:30:26;;;;;;;6.50;2.72;;;13.50;99.90;;;;;;5008165;28;20076;-80
2023/01/01 05:32:52;;;;;;;5.43;2.20;;;13.40;99.90;;;;;;5008170;28;20104;-80
2023/01/01 05:35:19;;;;;;;3.90;1.52;;;13.40;99.90;;;;;;5019186;28;20491;-80
2023/01/01 05:37:44;;;;;;;6.32;1.85;;;13.40;99.90;;;;;;5027305;28;20483;-81
2023/01/01 05:40:10;;;;;;;4.18;1.60;;;13.30;99.90;;;;;;5027630;28;20069;-80
2023/01/01 05:42:36;;;;;;;4.47;1.98;;;13.30;99.90;;;;;;5027202;28;20037;-80
2023/01/01 05:45:05;;;;;;;5.20;1.52;;;13.30;99.90;;;;;;5011310;28;20041;-80
2023/01/01 05:47:30;;;;;;;4.07;1.65;;;13.20;99.90;;;;;;5007457;28;20563;-80
2023/01/01 05:49:56;;;;;;;4.50;1.80;;;13.20;99.90;;;;;;5018601;28;20053;-80
2023/01/01 05:52:21;;;;;;;5.10;1.70;;;13.20;99.90;;;;;;5025192;28;20083;-80
2023/01/01 05:54:47;;;;;;;7.28;1.73;;;13.10;99.90;;;;;;5027334;28;20050;-81
2023/01/01 05:57:12;;;;;;;7.18;2.10;;;13.00;99.90;;;;;;5024200;28;20049;-80
2023/01/01 05:59:38;;;;;;;4.50;1.35;;;13.00;99.90;;;;;;5014528;28;20051;-80
2023/01/01 06:02:03;;;;;;;2.92;1.48;;;12.90;99.90;;;;;;5025788;28;20081;-81
2023/01/01 06:04:29;;;;;;;5.43;1.55;;;12.90;99.90;;;;;;5028097;28;20037;-80
2023/01/01 06:06:54;;;;;;;4.60;1.35;;;12.90;99.90;;;;;;5012741;28;20042;-81
2023/01/01 06:09:20;;;;;;;6.00;1.50;;;12.90;99.90;;;;;;5011151;28;20468;-80
2023/01/01 06:11:46;;;;;;;2.13;1.20;;;12.80;99.90;;;;;;5010451;28;20069;-81
2023/01/01 06:14:11;;;;;;;4.03;1.52;;;12.80;99.90;;;;;;5010562;28;20046;-82
2023/01/01 06:16:37;;;;;;;2.58;1.30;;;12.80;99.90;;;;;;4993666;28;20089;-81
2023/01/01 06:19:02;;;;;;;3.03;1.40;;;12.80;99.90;;;;;;5028562;28;20045;-80
2023/01/01 06:21:28;;;;;;;4.47;1.50;;;12.70;99.90;;;;;;5030133;28;20080;-81
2023/01/01 06:23:56;;;;;;;4.82;1.63;;;12.70;99.90;;;;;;5046459;28;20124;-79
2023/01/01 06:26:24;;;;;;;5.25;1.60;;;12.70;99.90;;;;;;5020530;28;20057;-81
2023/01/01 06:28:50;;;;;;;4.97;1.38;;;12.70;99.90;;;;;;5011718;28;20123;-80
2023/01/01 06:31:19;;;;;;;5.45;1.45;;;12.70;99.90;;;;;;5011214;28;20484;-81
2023/01/01 06:33:45;;;;;;;5.75;1.55;;;12.70;99.90;;;;;;5011255;28;20096;-80
2023/01/01 06:36:12;;;;;;;2.97;1.30;;;12.70;99.90;;;;;;5011350;28;20050;-82
2023/01/01 06:38:41;;;;;;;3.95;1.27;;;12.60;99.90;;;;;;5010202;28;20050;-80
2023/01/01 06:41:10;;;;;;;4.78;1.75;;;12.60;99.90;;;;;;5010906;28;20038;-81
2023/01/01 06:43:35;;;;;;;5.93;1.50;;;12.60;99.90;;;;;;5022428;28;20046;-80
2023/01/01 06:46:02;;;;;;;3.97;1.50;;;12.60;99.90;;;;;;5025581;28;20443;-80
2023/01/01 06:48:33;;;;;;;3.83;1.65;;;12.50;99.90;;;;;;5013275;28;20500;-80
2023/01/01 06:51:06;;;;;;;6.35;1.77;;;12.50;99.90;;;;;;5029414;28;20049;-80
2023/01/01 06:53:31;;;;;;;5.47;1.35;;;12.50;99.90;;;;;;5011142;28;20054;-81
2023/01/01 06:55:57;;;;;;;7.18;1.55;;;12.50;99.90;;;;;;5012532;28;20052;-80
2023/01/01 06:58:23;;;;;;;5.18;1.65;;;12.50;99.90;;;;;;5027948;28;20045;-81
2023/01/01 07:00:48;;;;;;;5.20;1.55;;;12.50;99.90;;;;;;5016429;28;20053;-81
2023/01/01 07:03:14;;;;;;;8.85;1.75;;;12.40;99.90;;;;;;5028622;28;20069;-81
2023/01/01 07:05:39;;;;;;;7.18;1.73;;;12.40;99.90;;;;;;5025292;28;20121;-81
2023/01/01 07:08:05;;;;;;;9.75;2.13;;;12.40;99.90;;;;;;5020260;28;20050;-80
2023/01/01 07:10:31;;;;;;;5.68;2.22;;;12.30;99.90;;;;;;5025958;28;20122;-80
2023/01/01 07:12:56;;;;;;;4.78;1.60;;;12.30;99.90;;;;;;5025476;28;20496;-81
2023/01/01 07:15:22;;;;;;;8.43;2.30;;;12.30;99.90;;;;;;5009151;28;20523;-81
2023/01/01 07:17:47;;;;;;;6.45;1.45;;;12.30;99.90;;;;;;5010271;28;21159;-80
2023/01/01 07:20:13;;;;;;;6.13;1.65;;;12.30;99.90;;;;;;5010532;28;20949;-81
2023/01/01 07:22:39;;;;;;;10.10;2.10;;;12.60;99.90;;;;;;5010261;28;20048;-82
2023/01/01 07:25:06;;;;;;;9.60;2.28;;;12.30;99.90;;;;;;5014626;28;20725;-81
2023/01/01 07:27:32;;;;;;;5.15;1.60;;;12.20;99.90;;;;;;5028193;28;20041;-81
2023/01/01 07:29:57;;;;;;;5.72;1.38;;;12.20;99.90;;;;;;5028700;28;20037;-81
2023/01/01 07:32:23;;;;;;;6.20;1.92;;;12.20;99.90;;;;;;5029504;28;20397;-82
2023/01/01 07:34:49;;;;;;;8.60;1.77;;;12.10;99.90;;;;;;5028880;28;20084;-81
2023/01/01 07:37:14;;;;;;;9.13;2.20;;;12.10;99.90;;;;;;5027318;28;20045;-80
2023/01/01 07:39:40;;;;;;;6.47;1.67;;;12.60;99.90;;;;;;5028852;28;20041;-80
2023/01/01 07:42:05;;;;;;;5.30;1.55;;;12.20;99.90;;;;;;5029601;28;20053;-81
2023/01/01 07:44:31;;;;;;;7.97;1.52;;;12.20;99.90;;;;;;5027439;28;20084;-81
2023/01/01 07:47:04;;;;;;;7.25;2.22;;;12.10;99.90;;;;;;5019008;28;20038;-81
2023/01/01 07:49:30;;;;;;;5.78;1.65;;;12.10;99.90;;;;;;5012196;28;20058;-81
2023/01/01 07:51:55;;;;;;;6.15;1.73;;;12.00;99.90;;;;;;5027468;28;20037;-81
2023/01/01 07:54:22;;;;;;;7.95;1.48;;;12.00;99.90;;;;;;5028860;28;20089;-81
2023/01/01 07:56:47;;;;;;;6.15;1.50;;;12.00;99.90;;;;;;5036901;28;20049;-80
2023/01/01 07:59:13;;;;;;;9.02;1.67;;;12.00;99.90;;;;;;5024622;28;20107;-81
2023/01/01 08:01:39;;;;;;;6.30;1.80;;;12.00;99.90;;;;;;5011636;28;20096;-80
2023/01/01 08:04:04;;;;;;;8.15;1.85;;;12.00;99.90;;;;;;5009121;28;20061;-82
2023/01/01 08:06:30;;;;;;;9.73;2.05;;;12.40;99.90;;;;;;5008745;28;20045;-80
2023/01/01 08:08:55;;;;;;;6.55;1.88;;;12.00;99.90;;;;;;5009279;28;20133;-80
2023/01/01 08:11:21;;;;;;;6.78;1.98;;;12.00;99.90;;;;;;5008431;28;20053;-80
2023/01/01 08:13:47;;;;;;;7.00;1.70;;;12.00;99.90;;;;;;5008227;28;20073;-80
2023/01/01 08:16:12;;;;;;;5.45;1.35;;;12.00;99.90;;;;;;5010447;28;20050;-80
2023/01/01 08:18:38;;;;;;;6.20;1.85;;;12.00;99.90;;;;;;5025142;28;20038;-81
2023/01/01 08:21:04;;;;;;;8.25;2.25;;;12.00;99.90;;;;;;5025459;28;20046;-79
2023/01/01 08:23:29;;;;;;;5.03;1.77;;;11.90;99.90;;;;;;5027632;28;20060;-82
2023/01/01 08:26:00;;;;;;;8.45;1.85;;;11.90;99.90;;;;;;5016377;28;20080;-81
2023/01/01 08:28:26;;;;;;;9.32;1.60;;;11.90;99.90;;;;;;5008090;28;20092;-82
2023/01/01 08:30:52;;;;;;;13.55;2.65;;;11.90;99.90;;;;;;5010267;28;20053;-81
2023/01/01 08:33:18;;;;;;;6.80;1.90;;;11.90;99.90;;;;;;5026110;28;20060;-80
2023/01/01 08:35:44;;;;;;;8.05;2.05;;;11.90;99.90;;;;;;5022572;28;20049;-80
2023/01/01 08:38:10;;;;;;;7.82;1.75;;;11.90;99.90;;;;;;5011350;28;20137;-80
2023/01/01 08:40:36;;;;;;;12.27;2.05;;;11.80;99.90;;;;;;5028272;28;20132;-80
2023/01/01 08:43:02;;;;;;;7.40;1.70;;;11.80;99.90;;;;;;5027138;28;20824;-81
2023/01/01 08:45:27;;;;;;;5.32;2.00;;;11.80;99.90;;;;;;5007383;28;20122;-80
2023/01/01 08:47:53;;;;;;;6.88;1.88;;;11.80;99.90;;;;;;5007172;28;20092;-80
2023/01/01 08:50:19;;;;;;;5.85;1.88;;;11.70;99.90;;;;;;5009258;28;20033;-80
2023/01/01 08:52:44;;;;;;;7.13;2.10;;;11.70;99.90;;;;;;5025987;28;20130;-80
2023/01/01 08:55:10;;;;;;;8.30;1.52;;;11.70;99.90;;;;;;5013141;28;20041;-79
2023/01/01 08:57:35;;;;;;;9.07;1.98;;;11.70;99.90;;;;;;5015366;28;20099;-80
2023/01/01 09:00:01;;;;;;;5.25;1.70;;;11.70;99.90;;;;;;5027548;28;20053;-79
2023/01/01 09:02:26;;;;;;;8.50;1.83;;;11.70;99.90;;;;;;5026697;28;20048;-80
2023/01/01 09:04:52;;;;;;;6.65;1.92;;;11.70;99.90;;;;;;5027139;28;20056;-79
2023/01/01 09:07:18;;;;;;;12.93;2.30;;;11.70;99.90;;;;;;5028227;28;20041;-80
2023/01/01 09:09:43;;;;;;;7.28;1.77;;;11.70;99.90;;;;;;5015725;28;20124;-80
2023/01/01 09:12:13;;;;;;;6.93;1.95;;;11.70;99.90;;;;;;5008214;28;20038;-80
2023/01/01 09:14:39;;;;;;;12.23;2.60;;;11.70;99.90;;;;;;5020376;28;20053;-81
2023/01/01 09:17:04;;;;;;;7.25;1.85;;;11.70;99.90;;;;;;5028098;28;20116;-79
2023/01/01 09:19:30;;;;;;;12.13;2.08;;;11.70;99.90;;;;;;5028304;28;20521;-79
2023/01/01 09:21:56;;;;;;;8.95;1.80;;;11.70;99.90;;;;;;5026104;28;20118;-81
2023/01/01 09:24:22;;;;;;;10.23;2.00;;;11.70;99.90;;;;;;5028290;28;20060;-80
2023/01/01 09:26:47;;;;;;;6.25;2.13;;;11.80;99.90;;;;;;5026091;28;20056;-80
2023/01/01 09:29:17;;;;;;;10.65;1.98;;;11.80;99.90;;;;;;5015469;28;20172;-80
2023/01/01 09:31:43;;;;;;;11.10;2.13;;;11.80;99.90;;;;;;5009240;28;20083;-80
2023/01/01 09:34:09;;;;;;;10.18;1.63;;;11.80;99.90;;;;;;5008025;28;20046;-79
2023/01/01 09:36:35;;;;;;;11.32;1.90;;;11.80;99.90;;;;;;5006489;28;20046;-79
2023/01/01 09:39:01;;;;;;;6.90;1.88;;;11.80;99.90;;;;;;5006549;28;20057;-78
2023/01/01 09:42:05;;;;;;;8.52;1.52;;;11.80;99.90;;;;;;5005937;28;20064;-79
2023/01/01 09:45:03;;;;;;;10.77;1.75;;;11.80;99.90;;;;;;4989134;28;20066;-79
2023/01/01 09:47:45;;;;;;;12.82;2.15;;;11.80;99.90;;;;;;5017173;28;20075;-77
2023/01/01 09:50:15;;;;;;;12.68;2.50;;;11.80;99.90;;;;;;5002677;28;20097;-79
2023/01/01 09:52:59;;;;;;;14.55;2.33;;;11.80;99.90;;;;;;4990359;28;20104;-77
2023/01/01 09:55:55;;;;;;;9.10;2.33;;;11.80;99.90;;;;;;5007822;28;20092;-78
2023/01/01 09:58:25;;;;;;;9.05;2.53;;;11.80;99.90;;;;;;5006939;28;20204;-78
2023/01/01 10:00:58;;;;;;;10.85;2.00;;;11.80;99.90;;;;;;5007768;28;20061;-78
2023/01/01 10:03:43;;;;;;;8.68;1.77;;;11.80;99.90;;;;;;5024468;28;20049;-78
2023/01/01 10:06:16;;;;;;;10.93;2.08;;;11.80;99.90;;;;;;5026342;28;20085;-77
2023/01/01 10:08:47;;;;;;;10.13;2.00;;;11.70;99.90;;;;;;5022647;28;20047;-77
2023/01/01 10:11:25;;;;;;;11.38;2.28;;;11.70;99.90;;;;;;5025509;28;20058;-77
2023/01/01 10:13:52;;;;;;;9.43;2.20;;;11.70;99.90;;;;;;5026259;28;20124;-77
2023/01/01 10:16:39;;;;;;;7.60;1.90;;;11.70;99.90;;;;;;5026521;28;20045;-80
2023/01/01 10:19:37;;;;;;;8.35;2.22;;;11.70;99.90;;;;;;5027630;28;20037;-77
2023/01/01 10:22:21;;;;;;;15.80;2.13;;;11.60;99.90;;;;;;5004605;28;20100;-77
2023/01/01 10:25:16;;;;;;;12.45;2.05;;;11.70;99.90;;;;;;5020930;28;20471;-77
2023/01/01 10:28:00;;;;;;;9.82;1.83;;;11.60;99.90;;;;;;5025618;28;20492;-77
2023/01/01 10:30:28;;;;;;;9.77;1.77;;;11.70;99.90;;;;;;5027684;28;20552;-77
2023/01/01 10:32:55;;;;;;;10.90;1.67;;;11.70;99.90;;;;;;5013905;28;20076;-77
2023/01/01 10:35:38;;;;;;;10.30;2.35;;;11.70;99.90;;;;;;4990147;28;20046;-77
2023/01/01 10:38:07;;;;;;;5.30;1.50;;;11.80;99.90;;;;;;5007955;28;20096;-77
2023/01/01 10:40:33;;;;;;;6.95;1.67;;;11.90;99.90;;;;;;5006303;28;20046;-79
2023/01/01 10:43:00;;;;;;;8.35;2.05;;;11.90;99.90;;;;;;5006263;28;20069;-80
2023/01/01 10:45:35;;;;;;;8.10;1.48;;;11.90;99.90;;;;;;5007404;28;20042;-80
2023/01/01 10:48:15;;;;;;;6.70;1.52;;;12.00;99.90;;;;;;5020574;28;20053;-80
2023/01/01 10:50:47;;;;;;;5.25;1.50;;;12.10;99.90;;;;;;5024509;28;20053;-80
2023/01/01 10:53:28;;;;;;;9.00;2.00;;;12.10;99.90;;;;;;5016123;28;20061;-79
2023/01/01 10:56:10;;;;;;;8.10;1.97;;;12.10;99.90;;;;;;5009986;28;20890;-80
2023/01/01 10:58:55;;;;;;;5.88;1.73;;;12.10;99.90;;;;;;5011319;28;20801;-80
2023/01/01 11:01:30;;;;;;;11.23;1.88;;;12.20;99.90;;;;;;5009606;28;20057;-79
2023/01/01 11:04:19;;;;;;;8.85;2.08;;;12.20;99.90;;;;;;5016363;28;20112;-80
2023/01/01 11:06:46;;;;;;;7.68;1.80;;;12.20;99.90;;;;;;5026695;28;20040;-79
2023/01/01 11:09:20;;;;;;;12.50;2.00;;;12.20;99.90;;;;;;5028727;28;20037;-80
2023/01/01 11:11:53;;;;;;;10.02;2.03;;;12.20;99.90;;;;;;5028471;28;20041;-79
2023/01/01 11:14:24;;;;;;;8.15;1.90;;;12.20;99.90;;;;;;5020315;28;20054;-79
2023/01/01 11:16:53;;;;;;;6.85;2.03;;;12.30;99.90;;;;;;5009245;28;20049;-79
2023/01/01 11:19:41;;;;;;;7.60;1.90;;;12.60;99.90;;;;;;5011300;28;20041;-80
2023/01/01 11:22:26;;;;;;;8.07;2.03;;;12.30;99.90;;;;;;5027224;28;20099;-80
2023/01/01 11:25:00;;;;;;;13.10;2.25;;;12.20;99.90;;;;;;5019161;28;20111;-79
2023/01/01 11:27:25;;;;;;;8.90;1.65;;;12.20;99.90;;;;;;5028692;28;20087;-80
2023/01/01 11:30:11;;;;;;;11.43;2.25;;;12.20;99.90;;;;;;5024107;28;20073;-78
2023/01/01 11:32:38;;;;;;;7.65;1.77;;;12.20;99.90;;;;;;5028451;28;20069;-78
2023/01/01 11:35:06;;;;;;;7.53;1.60;;;12.20;99.90;;;;;;5028381;28;20053;-80
2023/01/01 11:37:38;;;;;;;7.00;1.80;;;12.20;99.90;;;;;;5027313;28;20140;-80
2023/01/01 11:40:13;;;;;;;9.68;2.33;;;12.20;99.90;;;;;;5011495;28;20041;-80
2023/01/01 11:42:46;;;;;;;12.23;2.15;;;12.20;99.90;;;;;;5025434;28;20503;-79
2023/01/01 11:45:17;;;;;;;6.65;1.98;;;12.30;99.90;;;;;;5026107;28;20064;-80
2023/01/01 11:47:44;;;;;;;8.18;1.92;;;12.30;99.90;;;;;;5028376;28;20132;-79
2023/01/01 11:50:13;;;;;;;8.43;2.25;;;12.70;99.90;;;;;;5029578;28;20057;-80
2023/01/01 11:52:41;;;;;;;7.70;1.88;;;12.40;99.90;;;;;;5026430;28;20120;-80
2023/01/01 11:55:35;;;;;;;9.98;1.75;;;12.40;99.90;;;;;;5044245;28;20140;-80
2023/01/01 11:58:09;;;;;;;12.27;2.15;;;12.40;99.90;;;;;;5028057;28;20050;-80
2023/01/01 12:00:36;;;;;;;7.10;1.65;;;12.40;99.90;;;;;;5028330;28;20046;-79
2023/01/01 12:03:14;;;;;;;8.38;2.47;;;12.40;99.90;;;;;;5028171;28;20124;-80
2023/01/01 12:05:55;;;;;;;10.85;1.92;;;12.40;99.90;;;;;;5028039;28;20080;-80
2023/01/01 12:08:36;;;;;;;13.05;3.58;;;12.40;99.90;;;;;;5027996;28;20046;-80
2023/01/01 12:11:35;;;;;;;9.00;2.63;;;12.50;99.90;;;;;;5028653;28;20042;-80
2023/01/01 12:14:16;;;;;;;13.18;2.63;;;12.50;99.90;;;;;;5023873;28;20052;-79
2023/01/01 12:16:52;;;;;;;12.38;2.90;;;12.50;99.90;;;;;;5009503;28;20095;-80
2023/01/01 12:19:35;;;;;;;14.60;3.90;;;12.40;99.90;;;;;;5016854;28;20049;-80
2023/01/01 12:22:00;;;;;;;8.05;2.65;;;12.40;99.90;;;;;;5011678;28;20483;-80
2023/01/01 12:24:33;;;;;;;11.90;3.70;;;12.40;99.90;;;;;;5028090;28;20041;-80
2023/01/01 12:27:16;;;;;;;21.17;6.25;;;12.30;99.90;;;;;;5020053;28;20056;-78
2023/01/01 12:30:19;;;;;;;6.88;1.90;;;12.30;99.90;;;;;;5026202;28;20172;-79
2023/01/01 12:32:44;;;;;;;10.05;2.17;;;12.30;99.90;;;;;;5027469;28;20053;-77
2023/01/01 12:35:39;;;;;;;9.68;2.22;;;12.30;99.90;;;;;;5027634;28;20049;-78
2023/01/01 12:38:43;;;;;;;9.80;3.22;;;12.30;99.90;;;;;;5028242;28;20116;-79
2023/01/01 12:41:23;;;;;;;8.95;2.00;;;12.30;99.90;;;;;;5009877;28;20050;-78
2023/01/01 12:43:58;;;;;;;12.40;4.95;;;12.30;99.90;;;;;;5026833;28;20569;-79
2023/01/01 12:46:51;;;;;;;14.55;2.33;;;12.20;99.90;;;;;;5027310;28;20480;-78
2023/01/01 12:49:31;;;;;;;9.07;2.17;;;12.20;99.90;;;;;;5018455;28;20056;-77
2023/01/01 12:52:34;;;;;;;12.88;2.70;;;12.20;99.90;;;;;;5010782;28;20606;-79
2023/01/01 12:55:22;;;;;;;11.02;2.97;;;12.20;99.90;;;;;;5027083;28;20499;-78
2023/01/01 12:57:54;;;;;;;9.13;2.13;;;12.20;99.90;;;;;;5024111;28;20053;-80
2023/01/01 13:00:20;;;;;;;8.90;1.90;;;12.20;99.90;;;;;;5021586;28;20663;-79
2023/01/01 13:03:06;;;;;;;10.13;2.80;;;12.20;99.90;;;;;;5009444;28;20072;-78
2023/01/01 13:05:44;;;;;;;12.85;4.25;;;12.20;99.90;;;;;;5007444;28;20049;-80
2023/01/01 13:08:10;;;;;;;13.10;2.78;;;12.20;99.90;;;;;;5008459;28;20419;-80